This is the latest recevied weather packets stored in our database for station/object AC8UJ. If no packets are shown the sender has not sent any weather packets the latest 10 day(s).
| Time | Temp. | Humidity | Pressure | Rain* | Wind** | Luminosity | Snow |
|---|---|---|---|---|---|---|---|
| 1777911959 | 20° C | 59% | - | 0 mm | - | - | - |
| 1777910715 | 20° C | 60% | - | 0 mm | - | - | - |
| 1777906535 | 17.78° C | 64% | - | 0 mm | - | - | - |
| 1777905958 | 17.22° C | 66% | - | 0 mm | - | - | - |
| 1777904737 | 16.11° C | 67% | - | 0 mm | - | - | - |
| 1777899937 | 13.33° C | 69% | - | 0 mm | - | - | - |
| 1777898716 | 13.33° C | 69% | - | 0 mm | - | - | - |
| 1777895716 | 12.78° C | 67% | - | 0 mm | - | - | - |
| 1777893935 | 12.78° C | 66% | - | 0 mm | - | - | - |
| 1777892717 | 12.78° C | 65% | - | 0 mm | - | - | - |
| 1777891517 | 12.22° C | 65% | - | 0 mm | - | - | - |
| 1777889116 | 12.22° C | 63% | - | 0 mm | - | - | - |
| 1777881315 | 12.78° C | 58% | - | 0 mm | - | - | - |
| 1777880715 | 12.78° C | 58% | - | 0 mm | - | - | - |
| 1777875916 | 12.78° C | 56% | - | 0 mm | - | - | - |
| 1777871716 | 12.78° C | 55% | - | 0 mm | - | - | - |
| 1777869917 | 12.78° C | 55% | - | 0 mm | - | - | - |
| 1777866917 | 12.78° C | 56% | - | 0 mm | - | - | - |
| 1777861515 | 12.78° C | 54% | - | 0 mm | - | - | - |
| 1777860915 | 12.78° C | 54% | - | 0 mm | - | - | - |
| 1777859716 | 13.33° C | 54% | - | 0 mm | - | - | - |
| 1777857917 | 13.89° C | 51% | - | 0 mm | - | - | - |
| 1777855517 | 14.44° C | 44% | - | 0 mm | - | - | - |
| 1777848917 | 15.56° C | 38% | - | 0 mm | - | - | - |
| 1777847715 | 16.11° C | 38% | - | 0 mm | - | - | - |
* Rain latest hour (hover to see other rain measurements)
** Current wind speed in m/s (hover to see current wind gust speed)